Time;durP1;ratioP1;P1;durP2;ratioP2;P2;SDS_P1;SDS_P2;PMS_P1;PMS_P2;Temp;Humidity;BMP_temperature;BMP_pressure;BME280_temperature;BME280_humidity;BME280_pressure;Samples;Min_cycle;Max_cycle;Signal;HPM_P1;HPM_P2
2023/05/16 00:02:38;;;;;;;10.70;7.15;;;;;;;;;;6295021;28;20541;-59
2023/05/16 00:05:39;;;;;;;10.93;7.00;;;;;;;;;;6294967;28;20414;-59
2023/05/16 00:08:40;;;;;;;12.07;7.40;;;;;;;;;;6295477;28;20455;-57
2023/05/16 00:11:40;;;;;;;13.38;7.45;;;;;;;;;;6295460;28;20582;-57
2023/05/16 00:14:41;;;;;;;11.18;7.28;;;;;;;;;;6296756;28;20044;-59
2023/05/16 00:17:45;;;;;;;13.30;7.25;;;;;;;;;;6294866;28;20071;-58
2023/05/16 00:20:47;;;;;;;12.10;7.43;;;;;;;;;;6292444;28;20929;-59
2023/05/16 00:23:47;;;;;;;10.57;7.07;;;;;;;;;;6296570;28;20048;-59
2023/05/16 00:26:48;;;;;;;11.20;7.57;;;;;;;;;;6305740;28;20050;-60
2023/05/16 00:29:48;;;;;;;10.35;6.60;;;;;;;;;;6297645;28;20047;-60
2023/05/16 00:32:49;;;;;;;12.57;7.55;;;;;;;;;;6295859;28;20049;-59
2023/05/16 00:35:50;;;;;;;9.07;5.70;;;;;;;;;;6296204;28;20420;-55
2023/05/16 00:38:51;;;;;;;9.40;5.90;;;;;;;;;;6294091;28;20054;-58
2023/05/16 00:41:51;;;;;;;11.05;6.50;;;;;;;;;;6296476;28;20048;-59
2023/05/16 00:44:52;;;;;;;8.95;5.68;;;;;;;;;;6296356;28;20480;-55
2023/05/16 00:47:53;;;;;;;8.73;5.70;;;;;;;;;;6295266;28;20056;-59
2023/05/16 00:50:54;;;;;;;10.43;5.60;;;;;;;;;;6297110;28;20079;-57
2023/05/16 00:53:55;;;;;;;9.98;5.72;;;;;;;;;;6296775;28;20043;-56
2023/05/16 00:56:56;;;;;;;11.73;5.43;;;;;;;;;;6294979;28;20460;-56
2023/05/16 00:59:57;;;;;;;9.35;5.63;;;;;;;;;;6291163;28;20058;-59
2023/05/16 01:02:58;;;;;;;12.82;5.45;;;;;;;;;;6294847;28;20041;-58
2023/05/16 01:05:59;;;;;;;9.93;6.10;;;;;;;;;;6295779;28;20475;-59
2023/05/16 01:09:01;;;;;;;9.77;5.70;;;;;;;;;;6300564;28;20159;-54
2023/05/16 01:12:22;;;;;;;10.93;6.20;;;;;;;;;;6293997;28;20494;-59
2023/05/16 01:15:29;;;;;;;9.25;5.95;;;;;;;;;;6293818;28;20052;-59
2023/05/16 01:18:38;;;;;;;9.88;6.30;;;;;;;;;;6296689;28;20407;-59
2023/05/16 01:22:28;;;;;;;10.00;6.07;;;;;;;;;;6295906;28;20483;-60
2023/05/16 01:25:49;;;;;;;11.60;6.07;;;;;;;;;;6293971;28;20060;-60
2023/05/16 01:28:51;;;;;;;9.23;6.20;;;;;;;;;;6296940;28;20044;-59
2023/05/16 01:31:51;;;;;;;10.98;6.63;;;;;;;;;;6294073;28;20432;-59
2023/05/16 01:34:52;;;;;;;9.68;6.18;;;;;;;;;;6293310;28;20051;-60
2023/05/16 01:38:15;;;;;;;10.93;7.03;;;;;;;;;;6293729;28;20044;-58
2023/05/16 01:41:42;;;;;;;10.85;6.80;;;;;;;;;;6295352;28;20050;-59
2023/05/16 01:45:00;;;;;;;10.65;6.70;;;;;;;;;;6292124;28;20607;-60
2023/05/16 01:48:09;;;;;;;11.15;7.10;;;;;;;;;;6296847;28;20043;-59
2023/05/16 01:51:11;;;;;;;10.05;6.72;;;;;;;;;;6292048;28;20040;-58
2023/05/16 01:54:14;;;;;;;10.82;6.88;;;;;;;;;;6290823;28;21279;-60
2023/05/16 01:57:16;;;;;;;10.52;6.80;;;;;;;;;;6293246;28;20475;-55
2023/05/16 02:00:16;;;;;;;14.40;7.15;;;;;;;;;;6292636;28;20048;-59
2023/05/16 02:03:17;;;;;;;10.52;7.15;;;;;;;;;;6294861;28;20040;-60
2023/05/16 02:06:18;;;;;;;11.85;7.55;;;;;;;;;;6292967;28;20044;-60
2023/05/16 02:09:19;;;;;;;12.38;7.60;;;;;;;;;;6295983;28;20125;-59
2023/05/16 02:12:20;;;;;;;12.57;7.95;;;;;;;;;;6293384;28;20040;-60
2023/05/16 02:15:20;;;;;;;13.30;8.35;;;;;;;;;;6293315;28;20090;-59
2023/05/16 02:18:22;;;;;;;19.08;10.95;;;;;;;;;;6294562;28;20071;-57
2023/05/16 02:21:22;;;;;;;27.70;13.73;;;;;;;;;;6291194;28;21318;-58
2023/05/16 02:24:23;;;;;;;17.25;10.00;;;;;;;;;;6295238;28;20144;-59
2023/05/16 02:27:24;;;;;;;17.95;9.70;;;;;;;;;;6292282;28;20078;-59
2023/05/16 02:30:25;;;;;;;16.83;9.90;;;;;;;;;;6295510;28;20044;-58
2023/05/16 02:33:27;;;;;;;13.75;8.82;;;;;;;;;;6299194;28;20406;-56
2023/05/16 02:36:27;;;;;;;13.77;9.05;;;;;;;;;;6294957;28;20063;-59
2023/05/16 02:39:28;;;;;;;15.75;9.05;;;;;;;;;;6292450;28;20719;-58
2023/05/16 02:42:30;;;;;;;19.03;10.60;;;;;;;;;;6293143;28;20062;-59
2023/05/16 02:45:31;;;;;;;17.85;11.00;;;;;;;;;;6295690;28;20086;-59
2023/05/16 02:48:32;;;;;;;17.88;10.20;;;;;;;;;;6294963;28;20489;-59
2023/05/16 02:51:32;;;;;;;16.58;9.52;;;;;;;;;;6294093;28;20090;-58
2023/05/16 02:54:33;;;;;;;17.23;10.65;;;;;;;;;;6294472;28;20129;-58
2023/05/16 02:57:33;;;;;;;16.98;10.75;;;;;;;;;;6290929;28;20045;-56
2023/05/16 03:00:34;;;;;;;18.05;10.77;;;;;;;;;;6293482;28;20079;-59
2023/05/16 03:03:36;;;;;;;17.55;11.23;;;;;;;;;;6295100;28;20044;-51
2023/05/16 03:06:36;;;;;;;19.30;11.75;;;;;;;;;;6294081;28;20063;-58
2023/05/16 03:09:37;;;;;;;17.85;11.27;;;;;;;;;;6292150;28;20209;-58
2023/05/16 03:12:37;;;;;;;17.55;11.60;;;;;;;;;;6290224;28;20542;-60
2023/05/16 03:15:38;;;;;;;20.55;11.95;;;;;;;;;;6290818;28;20053;-58
2023/05/16 03:18:39;;;;;;;18.30;11.27;;;;;;;;;;6296121;28;20059;-59
2023/05/16 03:21:39;;;;;;;19.95;11.77;;;;;;;;;;6295266;28;20049;-60
2023/05/16 03:24:40;;;;;;;17.77;11.60;;;;;;;;;;6295016;28;20040;-59
2023/05/16 03:27:40;;;;;;;17.90;11.25;;;;;;;;;;6294822;28;20127;-58
2023/05/16 03:30:41;;;;;;;17.55;11.50;;;;;;;;;;6296643;28;20071;-59
2023/05/16 03:33:42;;;;;;;18.20;11.43;;;;;;;;;;6297477;28;20036;-55
2023/05/16 03:36:43;;;;;;;23.13;11.80;;;;;;;;;;6298144;28;20535;-57
2023/05/16 03:39:43;;;;;;;17.83;10.82;;;;;;;;;;6295407;28;20043;-60
2023/05/16 03:42:44;;;;;;;15.25;10.18;;;;;;;;;;6297623;28;20050;-57
2023/05/16 03:45:44;;;;;;;17.45;11.20;;;;;;;;;;6297363;28;20040;-59
2023/05/16 03:48:46;;;;;;;22.45;13.30;;;;;;;;;;6300607;28;20045;-57
2023/05/16 03:51:46;;;;;;;25.17;16.38;;;;;;;;;;6296530;28;20044;-54
2023/05/16 03:54:48;;;;;;;19.90;12.30;;;;;;;;;;6297683;28;20558;-59
2023/05/16 03:57:50;;;;;;;16.38;9.60;;;;;;;;;;6298280;28;20048;-57
2023/05/16 04:00:50;;;;;;;15.90;9.35;;;;;;;;;;6297621;28;20038;-58
2023/05/16 04:03:51;;;;;;;15.20;9.40;;;;;;;;;;6295675;28;20044;-58
2023/05/16 04:06:52;;;;;;;15.52;9.18;;;;;;;;;;6296029;28;20122;-58
2023/05/16 04:09:53;;;;;;;15.98;9.40;;;;;;;;;;6297950;28;20075;-58
2023/05/16 04:12:54;;;;;;;17.02;9.70;;;;;;;;;;6296219;28;20098;-58
2023/05/16 04:15:54;;;;;;;13.98;9.20;;;;;;;;;;6295645;28;20565;-56
2023/05/16 04:18:55;;;;;;;15.02;9.57;;;;;;;;;;6295474;28;20514;-60
2023/05/16 04:21:56;;;;;;;13.40;8.88;;;;;;;;;;6293025;28;20051;-59
2023/05/16 04:24:57;;;;;;;16.52;9.80;;;;;;;;;;6294941;28;20048;-57
2023/05/16 04:27:57;;;;;;;12.85;8.27;;;;;;;;;;6295928;28;20048;-59
2023/05/16 04:30:58;;;;;;;13.63;8.20;;;;;;;;;;6299770;28;20053;-57
2023/05/16 04:33:58;;;;;;;14.20;8.77;;;;;;;;;;6290381;28;20493;-59
2023/05/16 04:36:59;;;;;;;15.80;8.55;;;;;;;;;;6295771;28;20068;-59
2023/05/16 04:40:00;;;;;;;13.52;9.15;;;;;;;;;;6294119;28;20482;-59
2023/05/16 04:43:01;;;;;;;14.90;8.73;;;;;;;;;;6314125;28;20372;-60
2023/05/16 04:46:02;;;;;;;13.32;8.27;;;;;;;;;;6317747;28;20040;-59
2023/05/16 04:49:03;;;;;;;13.23;8.90;;;;;;;;;;6317576;28;20126;-60
2023/05/16 04:52:07;;;;;;;14.50;9.25;;;;;;;;;;6316226;28;20513;-60
2023/05/16 04:55:08;;;;;;;18.83;10.60;;;;;;;;;;6318173;28;20048;-58
2023/05/16 04:58:09;;;;;;;16.30;9.88;;;;;;;;;;6316748;28;20479;-58
2023/05/16 05:01:10;;;;;;;15.98;9.15;;;;;;;;;;6304584;28;20060;-59
2023/05/16 05:04:10;;;;;;;12.98;8.60;;;;;;;;;;6316036;28;20479;-60
2023/05/16 05:07:11;;;;;;;15.50;9.15;;;;;;;;;;6317123;28;20040;-57
2023/05/16 05:10:11;;;;;;;15.07;9.00;;;;;;;;;;6316248;28;20044;-61
2023/05/16 05:13:12;;;;;;;14.35;8.88;;;;;;;;;;6317155;28;20463;-61
2023/05/16 05:16:13;;;;;;;25.02;10.65;;;;;;;;;;6316873;28;20372;-60
2023/05/16 05:19:13;;;;;;;16.92;9.20;;;;;;;;;;6314741;28;20033;-61
2023/05/16 05:22:14;;;;;;;16.73;9.02;;;;;;;;;;6311881;28;20051;-60
2023/05/16 05:25:15;;;;;;;16.10;8.52;;;;;;;;;;6312123;28;20482;-59
2023/05/16 05:28:15;;;;;;;13.93;8.88;;;;;;;;;;6314792;28;20052;-60
2023/05/16 05:31:16;;;;;;;14.40;8.35;;;;;;;;;;6312937;28;20091;-60
2023/05/16 05:34:16;;;;;;;15.52;8.90;;;;;;;;;;6315460;28;20391;-60
2023/05/16 05:37:17;;;;;;;14.98;9.15;;;;;;;;;;6316200;28;20059;-58
2023/05/16 05:40:18;;;;;;;13.75;8.40;;;;;;;;;;6314677;28;20056;-58
2023/05/16 05:43:18;;;;;;;15.75;8.50;;;;;;;;;;6315841;28;20135;-57
2023/05/16 05:46:19;;;;;;;12.10;8.10;;;;;;;;;;6316031;28;20043;-61
2023/05/16 05:49:20;;;;;;;12.60;8.43;;;;;;;;;;6313256;28;20043;-60
2023/05/16 05:52:21;;;;;;;13.23;8.13;;;;;;;;;;6313001;28;20047;-57
2023/05/16 05:55:22;;;;;;;13.25;8.27;;;;;;;;;;6315642;28;20056;-56
2023/05/16 05:58:22;;;;;;;15.43;8.65;;;;;;;;;;6315767;28;20046;-60
2023/05/16 06:01:23;;;;;;;12.52;8.65;;;;;;;;;;6314314;28;20052;-58
2023/05/16 06:04:23;;;;;;;12.88;8.48;;;;;;;;;;6315529;28;20043;-60
2023/05/16 06:07:24;;;;;;;14.18;8.45;;;;;;;;;;6315951;28;20078;-58
2023/05/16 06:10:25;;;;;;;14.57;8.35;;;;;;;;;;6313882;28;20097;-60
2023/05/16 06:13:26;;;;;;;12.32;8.23;;;;;;;;;;6315230;28;20047;-57
2023/05/16 06:16:26;;;;;;;12.18;8.38;;;;;;;;;;6300165;28;20125;-60
2023/05/16 06:19:27;;;;;;;13.02;8.50;;;;;;;;;;6293961;28;20542;-58
2023/05/16 06:22:27;;;;;;;10.80;7.93;;;;;;;;;;6293863;28;20044;-58
2023/05/16 06:25:29;;;;;;;13.95;8.15;;;;;;;;;;6291823;28;20423;-59
2023/05/16 06:28:30;;;;;;;11.98;8.45;;;;;;;;;;6306121;28;20085;-60
2023/05/16 06:31:31;;;;;;;11.25;8.60;;;;;;;;;;6294860;28;20067;-60
2023/05/16 06:34:31;;;;;;;12.43;8.75;;;;;;;;;;6296556;28;20048;-58
2023/05/16 06:37:32;;;;;;;14.65;9.10;;;;;;;;;;6292981;28;20040;-60
2023/05/16 06:40:32;;;;;;;12.43;9.18;;;;;;;;;;6290220;28;20056;-61
2023/05/16 06:43:33;;;;;;;15.77;9.15;;;;;;;;;;6296204;28;22075;-58
2023/05/16 06:46:33;;;;;;;13.32;8.82;;;;;;;;;;6293839;28;20040;-59
2023/05/16 06:49:34;;;;;;;15.93;9.30;;;;;;;;;;6293630;28;20151;-59
2023/05/16 06:52:35;;;;;;;16.33;9.75;;;;;;;;;;6293485;28;20066;-59
2023/05/16 06:55:35;;;;;;;14.68;9.13;;;;;;;;;;6294984;28;20040;-59
2023/05/16 06:58:36;;;;;;;14.65;9.65;;;;;;;;;;6292935;28;20044;-61
2023/05/16 07:01:36;;;;;;;14.18;9.80;;;;;;;;;;6305503;28;20056;-59
2023/05/16 07:04:37;;;;;;;14.43;9.77;;;;;;;;;;6298675;28;20523;-60
2023/05/16 07:07:38;;;;;;;12.68;9.25;;;;;;;;;;6296421;28;20040;-60
2023/05/16 07:10:38;;;;;;;15.93;9.45;;;;;;;;;;6297434;28;20067;-57
2023/05/16 07:13:39;;;;;;;14.65;10.18;;;;;;;;;;6297246;28;20471;-60
2023/05/16 07:16:40;;;;;;;12.02;8.93;;;;;;;;;;6296735;28;20050;-59
2023/05/16 07:19:40;;;;;;;12.68;9.85;;;;;;;;;;6298722;28;20051;-61
2023/05/16 07:22:41;;;;;;;14.48;10.25;;;;;;;;;;6298212;28;20109;-59
2023/05/16 07:25:41;;;;;;;12.70;9.35;;;;;;;;;;6296073;28;20419;-60
2023/05/16 07:28:42;;;;;;;14.02;9.05;;;;;;;;;;6297668;28;20044;-59
2023/05/16 07:31:43;;;;;;;14.15;9.43;;;;;;;;;;6293904;28;20628;-58
2023/05/16 07:34:43;;;;;;;13.88;9.88;;;;;;;;;;6295433;28;20044;-59
2023/05/16 07:37:44;;;;;;;15.85;10.23;;;;;;;;;;6299250;28;20047;-60
2023/05/16 07:40:45;;;;;;;12.60;9.70;;;;;;;;;;6304716;28;20056;-60
2023/05/16 07:43:45;;;;;;;14.32;9.55;;;;;;;;;;6316487;28;20052;-60
2023/05/16 07:46:46;;;;;;;13.18;9.68;;;;;;;;;;6318217;28;20474;-59
2023/05/16 07:49:47;;;;;;;13.77;9.55;;;;;;;;;;6316793;28;20050;-60
2023/05/16 07:52:47;;;;;;;13.15;9.70;;;;;;;;;;6317562;28;20044;-59
2023/05/16 07:55:49;;;;;;;14.10;9.70;;;;;;;;;;6318225;28;20044;-60
2023/05/16 07:58:49;;;;;;;17.27;10.10;;;;;;;;;;6317997;28;20054;-60
2023/05/16 08:01:50;;;;;;;12.15;9.40;;;;;;;;;;6306676;28;20045;-60
2023/05/16 08:04:51;;;;;;;14.30;9.60;;;;;;;;;;6301372;28;20502;-58
2023/05/16 08:07:51;;;;;;;13.13;9.20;;;;;;;;;;6295323;28;20044;-60
2023/05/16 08:10:52;;;;;;;11.80;8.63;;;;;;;;;;6296218;28;20511;-60
2023/05/16 08:13:52;;;;;;;13.45;8.85;;;;;;;;;;6298970;28;20075;-60
2023/05/16 08:16:53;;;;;;;10.73;8.32;;;;;;;;;;6301233;28;20040;-59
2023/05/16 08:19:54;;;;;;;12.70;9.00;;;;;;;;;;6296956;28;20072;-61
2023/05/16 08:22:55;;;;;;;12.73;9.00;;;;;;;;;;6306559;28;20044;-60
2023/05/16 08:25:57;;;;;;;10.80;8.73;;;;;;;;;;6301928;28;20139;-61
2023/05/16 08:28:57;;;;;;;13.02;9.65;;;;;;;;;;6302838;28;20044;-61
2023/05/16 08:31:58;;;;;;;11.98;8.40;;;;;;;;;;6294256;28;20585;-61
2023/05/16 08:34:59;;;;;;;13.57;9.25;;;;;;;;;;6296493;28;20102;-61
2023/05/16 08:38:01;;;;;;;13.10;9.10;;;;;;;;;;6295787;28;20928;-62
2023/05/16 08:41:02;;;;;;;12.63;8.70;;;;;;;;;;6295432;28;20543;-61
2023/05/16 08:44:03;;;;;;;14.10;9.55;;;;;;;;;;6297702;28;20044;-61
2023/05/16 08:47:12;;;;;;;13.05;9.70;;;;;;;;;;6296792;28;20110;-61
2023/05/16 08:50:14;;;;;;;15.50;10.00;;;;;;;;;;6294575;28;20445;-61
2023/05/16 08:53:19;;;;;;;;;;;;;;;;;;6293841;28;20051;-61
2023/05/16 08:56:21;;;;;;;13.52;9.60;;;;;;;;;;6297425;28;19920;-57
2023/05/16 08:59:22;;;;;;;12.25;9.10;;;;;;;;;;6294482;28;20049;-62
2023/05/16 09:02:23;;;;;;;13.73;9.05;;;;;;;;;;6294620;28;20135;-61
2023/05/16 09:05:24;;;;;;;13.80;9.43;;;;;;;;;;6296759;28;20077;-61
2023/05/16 09:08:25;;;;;;;12.90;8.93;;;;;;;;;;6294743;28;20398;-58
2023/05/16 09:11:25;;;;;;;15.20;10.07;;;;;;;;;;6292371;28;20094;-60
2023/05/16 09:14:26;;;;;;;12.63;9.65;;;;;;;;;;6295837;28;20139;-60
2023/05/16 09:17:33;;;;;;;11.85;9.32;;;;;;;;;;6297117;28;20051;-61
2023/05/16 09:20:34;;;;;;;12.57;10.13;;;;;;;;;;6292181;28;20052;-61
2023/05/16 09:23:35;;;;;;;12.90;9.70;;;;;;;;;;6293019;28;20502;-61
2023/05/16 09:26:37;;;;;;;13.63;9.67;;;;;;;;;;6293442;28;20051;-61
2023/05/16 09:29:42;;;;;;;13.13;10.05;;;;;;;;;;6291453;28;20498;-60
2023/05/16 09:32:44;;;;;;;14.18;10.05;;;;;;;;;;6293136;28;20139;-61
2023/05/16 09:35:44;;;;;;;15.77;9.38;;;;;;;;;;6292315;28;20048;-60
2023/05/16 09:38:45;;;;;;;16.87;10.13;;;;;;;;;;6293485;28;20170;-61
2023/05/16 09:41:51;;;;;;;14.77;9.63;;;;;;;;;;6289884;28;20055;-61
2023/05/16 09:44:55;;;;;;;12.95;9.73;;;;;;;;;;6292306;28;20045;-60
2023/05/16 09:48:03;;;;;;;14.75;9.38;;;;;;;;;;6292463;28;20570;-59
2023/05/16 09:51:05;;;;;;;13.13;9.07;;;;;;;;;;6294401;28;20325;-61
2023/05/16 09:54:06;;;;;;;15.67;9.00;;;;;;;;;;6291857;28;20044;-60
2023/05/16 09:57:07;;;;;;;11.00;8.23;;;;;;;;;;6294042;28;20839;-59
2023/05/16 10:00:10;;;;;;;10.97;8.73;;;;;;;;;;6294245;28;20165;-60
2023/05/16 10:03:12;;;;;;;13.73;9.20;;;;;;;;;;6289877;28;20052;-62
2023/05/16 10:06:13;;;;;;;11.63;8.90;;;;;;;;;;6293253;28;20123;-60
2023/05/16 10:09:15;;;;;;;11.98;9.18;;;;;;;;;;6287734;28;20061;-60
2023/05/16 10:12:16;;;;;;;11.05;8.55;;;;;;;;;;6290805;28;20450;-57
2023/05/16 10:15:17;;;;;;;12.43;8.80;;;;;;;;;;6291254;28;20049;-63
2023/05/16 10:18:18;;;;;;;13.77;8.00;;;;;;;;;;6291751;28;20403;-61
2023/05/16 10:21:21;;;;;;;13.07;7.78;;;;;;;;;;6293686;28;20044;-61
2023/05/16 10:24:47;;;;;;;10.43;7.38;;;;;;;;;;6286139;28;20052;-61
2023/05/16 10:27:49;;;;;;;12.82;8.02;;;;;;;;;;6296061;28;20044;-61
2023/05/16 10:30:50;;;;;;;;;;;;;;;;;;6294194;28;20444;-61
2023/05/16 10:33:51;;;;;;;12.68;8.32;;;;;;;;;;6290405;28;19974;-60
2023/05/16 10:36:53;;;;;;;10.75;8.45;;;;;;;;;;6295153;28;20044;-61
2023/05/16 10:39:54;;;;;;;13.85;10.18;;;;;;;;;;6296541;28;20040;-61
2023/05/16 10:43:03;;;;;;;11.13;8.53;;;;;;;;;;6294405;28;20365;-57
2023/05/16 10:46:10;;;;;;;12.40;9.02;;;;;;;;;;6296949;28;20621;-60
2023/05/16 10:49:25;;;;;;;13.98;8.60;;;;;;;;;;6295580;28;20248;-61
2023/05/16 10:52:33;;;;;;;10.77;8.65;;;;;;;;;;6290268;28;20568;-58
2023/05/16 10:55:35;;;;;;;11.98;8.80;;;;;;;;;;6292986;28;20367;-61
2023/05/16 10:58:39;;;;;;;;;;;;;;;;;;6298247;28;20052;-60
2023/05/16 11:01:40;;;;;;;10.60;7.97;;;;;;;;;;6297684;28;19928;-62
2023/05/16 11:04:51;;;;;;;10.35;7.68;;;;;;;;;;6294960;28;20052;-61
2023/05/16 11:08:04;;;;;;;18.25;9.57;;;;;;;;;;6296792;28;20040;-61
2023/05/16 11:11:39;;;;;;;11.88;8.55;;;;;;;;;;6295891;28;20454;-60
2023/05/16 11:14:46;;;;;;;13.02;8.35;;;;;;;;;;6295419;28;20121;-61
2023/05/16 11:17:47;;;;;;;13.43;8.57;;;;;;;;;;6295688;28;20055;-60
2023/05/16 11:20:50;;;;;;;15.67;11.57;;;;;;;;;;6293238;28;20052;-59
2023/05/16 11:24:27;;;;;;;15.00;9.68;;;;;;;;;;6292654;28;20056;-60
2023/05/16 11:27:45;;;;;;;14.27;10.70;;;;;;;;;;6296102;28;20056;-58
2023/05/16 11:30:50;;;;;;;18.52;10.45;;;;;;;;;;6295239;28;20486;-60
2023/05/16 11:33:52;;;;;;;13.13;10.23;;;;;;;;;;6290990;28;20056;-59
2023/05/16 11:36:53;;;;;;;15.40;11.23;;;;;;;;;;6295050;28;20671;-62
2023/05/16 11:40:05;;;;;;;13.93;10.30;;;;;;;;;;6295170;28;20055;-58
2023/05/16 11:43:06;;;;;;;15.40;10.05;;;;;;;;;;6289537;28;20486;-58
2023/05/16 11:46:10;;;;;;;16.43;11.13;;;;;;;;;;6293367;28;20051;-60
2023/05/16 11:49:12;;;;;;;14.05;10.40;;;;;;;;;;6294050;28;20493;-61
2023/05/16 11:52:12;;;;;;;15.00;11.97;;;;;;;;;;6295590;28;20044;-57
2023/05/16 11:55:17;;;;;;;15.33;11.67;;;;;;;;;;6290752;28;20495;-60
2023/05/16 11:58:18;;;;;;;16.35;11.55;;;;;;;;;;6297465;28;20052;-56
2023/05/16 12:01:19;;;;;;;16.48;11.88;;;;;;;;;;6294662;28;20173;-61
2023/05/16 12:04:20;;;;;;;19.17;12.53;;;;;;;;;;6292238;28;20064;-60
2023/05/16 12:07:27;;;;;;;18.42;12.63;;;;;;;;;;6293764;28;20059;-60
2023/05/16 12:10:30;;;;;;;16.85;11.95;;;;;;;;;;6296287;28;20113;-59
2023/05/16 12:13:31;;;;;;;19.05;12.88;;;;;;;;;;6291421;28;20052;-59
2023/05/16 12:16:32;;;;;;;20.70;13.20;;;;;;;;;;6291086;28;20620;-61
2023/05/16 12:19:33;;;;;;;19.05;11.82;;;;;;;;;;6293830;28;20044;-60
2023/05/16 12:22:33;;;;;;;15.13;10.33;;;;;;;;;;6295027;28;20087;-60
2023/05/16 12:25:36;;;;;;;15.33;10.80;;;;;;;;;;6294302;28;20044;-59
2023/05/16 12:28:38;;;;;;;18.27;11.05;;;;;;;;;;6296677;28;20538;-60
2023/05/16 12:31:40;;;;;;;16.08;10.48;;;;;;;;;;6294261;28;20081;-58
2023/05/16 12:34:48;;;;;;;15.48;11.15;;;;;;;;;;6291399;28;20058;-62
2023/05/16 12:37:52;;;;;;;14.90;10.93;;;;;;;;;;6292485;28;20572;-61
2023/05/16 12:40:57;;;;;;;14.02;10.00;;;;;;;;;;6292631;28;20036;-60
2023/05/16 12:44:18;;;;;;;9.25;7.43;;;;;;;;;;6294382;28;20052;-58
2023/05/16 12:47:20;;;;;;;11.38;7.35;;;;;;;;;;6291215;28;20582;-60
2023/05/16 12:50:21;;;;;;;10.32;7.13;;;;;;;;;;6295822;28;20385;-60
2023/05/16 12:53:22;;;;;;;10.88;7.20;;;;;;;;;;6293576;28;20473;-60
2023/05/16 12:56:22;;;;;;;9.37;6.90;;;;;;;;;;6294112;28;20163;-61
2023/05/16 12:59:23;;;;;;;11.37;6.93;;;;;;;;;;6292212;28;20494;-61
2023/05/16 13:02:24;;;;;;;9.60;7.07;;;;;;;;;;6290135;28;20048;-61
2023/05/16 13:05:24;;;;;;;11.27;7.23;;;;;;;;;;6291579;28;20052;-58
2023/05/16 13:08:26;;;;;;;13.43;7.43;;;;;;;;;;6292520;28;20048;-59
2023/05/16 13:11:26;;;;;;;7.88;6.63;;;;;;;;;;6297511;28;20046;-59
2023/05/16 13:14:27;;;;;;;9.97;7.27;;;;;;;;;;6292551;28;20085;-55
2023/05/16 13:17:29;;;;;;;11.20;7.20;;;;;;;;;;6292535;28;20060;-59
2023/05/16 13:20:29;;;;;;;;;;;;;;;;;;6295095;28;20058;-61
2023/05/16 13:23:30;;;;;;;11.25;7.85;;;;;;;;;;6291791;28;20315;-55
2023/05/16 13:26:31;;;;;;;12.33;8.17;;;;;;;;;;6294477;28;20086;-68
2023/05/16 13:29:31;;;;;;;11.57;8.33;;;;;;;;;;6293117;28;20561;-55
2023/05/16 13:32:32;;;;;;;11.80;9.07;;;;;;;;;;6292720;28;20076;-58
2023/05/16 13:35:33;;;;;;;13.17;8.73;;;;;;;;;;6291052;28;20491;-57
2023/05/16 13:38:33;;;;;;;13.73;8.83;;;;;;;;;;6292436;28;20508;-58
2023/05/16 13:41:37;;;;;;;13.73;9.37;;;;;;;;;;6294995;28;20466;-56
2023/05/16 13:44:38;;;;;;;12.80;8.30;;;;;;;;;;6290426;28;20105;-57
2023/05/16 13:47:38;;;;;;;11.30;8.57;;;;;;;;;;6289686;28;20483;-56
2023/05/16 13:50:39;;;;;;;11.83;9.40;;;;;;;;;;6291550;28;20656;-57
2023/05/16 13:53:39;;;;;;;14.23;9.47;;;;;;;;;;6290950;28;20745;-59
2023/05/16 13:56:40;;;;;;;11.87;9.27;;;;;;;;;;6293091;28;20543;-59
2023/05/16 13:59:40;;;;;;;11.00;8.63;;;;;;;;;;6289321;28;20093;-60
2023/05/16 14:02:41;;;;;;;13.83;9.23;;;;;;;;;;6290681;28;20079;-54
2023/05/16 14:05:42;;;;;;;12.60;8.93;;;;;;;;;;6290706;28;20048;-57
2023/05/16 14:08:43;;;;;;;11.27;8.75;;;;;;;;;;6288141;28;20062;-60
2023/05/16 14:11:43;;;;;;;13.50;9.73;;;;;;;;;;6295331;28;20052;-56
2023/05/16 14:14:44;;;;;;;10.82;8.82;;;;;;;;;;6290637;28;20044;-58
2023/05/16 14:17:44;;;;;;;15.18;9.43;;;;;;;;;;6288757;28;20086;-58
2023/05/16 14:20:45;;;;;;;13.40;9.40;;;;;;;;;;6288733;28;20598;-58
2023/05/16 14:23:46;;;;;;;9.80;7.90;;;;;;;;;;6292590;28;20048;-59
2023/05/16 14:26:46;;;;;;;10.23;7.53;;;;;;;;;;6291947;28;20450;-60
2023/05/16 14:29:47;;;;;;;12.32;8.10;;;;;;;;;;6289178;28;20048;-57
2023/05/16 14:32:48;;;;;;;10.17;7.87;;;;;;;;;;6289908;28;20786;-58
2023/05/16 14:35:49;;;;;;;12.10;7.22;;;;;;;;;;6291806;28;20044;-58
2023/05/16 14:38:49;;;;;;;9.48;6.75;;;;;;;;;;6294137;28;20052;-58
2023/05/16 14:41:50;;;;;;;10.47;7.00;;;;;;;;;;6292840;28;20044;-56
2023/05/16 14:44:51;;;;;;;10.57;6.47;;;;;;;;;;6291477;28;20417;-57
2023/05/16 14:47:51;;;;;;;8.18;6.60;;;;;;;;;;6296142;28;20426;-58
2023/05/16 14:50:52;;;;;;;12.60;6.82;;;;;;;;;;6299795;28;20055;-59
2023/05/16 14:53:52;;;;;;;12.82;7.82;;;;;;;;;;6292493;28;20105;-60
2023/05/16 14:56:54;;;;;;;11.33;8.10;;;;;;;;;;6292334;28;20036;-61
2023/05/16 14:59:55;;;;;;;13.43;9.90;;;;;;;;;;6294242;28;20509;-62
2023/05/16 15:02:55;;;;;;;11.50;8.40;;;;;;;;;;6291199;28;20052;-58
2023/05/16 15:05:56;;;;;;;13.03;9.40;;;;;;;;;;6292853;28;20483;-55
2023/05/16 15:08:57;;;;;;;13.40;9.30;;;;;;;;;;6293054;28;20047;-59
2023/05/16 15:11:57;;;;;;;14.83;10.40;;;;;;;;;;6299424;28;20063;-57
2023/05/16 15:14:58;;;;;;;14.80;11.20;;;;;;;;;;6293921;28;20076;-58
2023/05/16 15:17:59;;;;;;;15.95;10.65;;;;;;;;;;6293620;28;20059;-62
2023/05/16 15:20:59;;;;;;;15.82;10.35;;;;;;;;;;6301778;28;20056;-58
2023/05/16 15:24:00;;;;;;;16.60;11.10;;;;;;;;;;6296062;28;20048;-61
2023/05/16 15:27:03;;;;;;;16.00;11.60;;;;;;;;;;6297448;28;20132;-58
2023/05/16 15:30:04;;;;;;;16.52;11.88;;;;;;;;;;6295543;28;20049;-59
2023/05/16 15:33:05;;;;;;;18.15;12.95;;;;;;;;;;6290288;28;20135;-55
2023/05/16 15:36:06;;;;;;;18.65;13.40;;;;;;;;;;6293218;28;20691;-60
2023/05/16 15:39:06;;;;;;;22.15;15.73;;;;;;;;;;6297806;28;20166;-52
2023/05/16 15:42:07;;;;;;;21.57;14.70;;;;;;;;;;6298455;28;20400;-54
2023/05/16 15:45:09;;;;;;;21.70;13.95;;;;;;;;;;6294218;28;20059;-54
2023/05/16 15:48:09;;;;;;;18.17;13.18;;;;;;;;;;6294708;28;20070;-54
2023/05/16 15:51:11;;;;;;;20.48;14.02;;;;;;;;;;6299273;28;20044;-56
2023/05/16 15:54:12;;;;;;;20.65;14.05;;;;;;;;;;6289686;28;20056;-60
2023/05/16 15:57:13;;;;;;;22.92;15.45;;;;;;;;;;6294962;28;20052;-58
2023/05/16 16:00:14;;;;;;;24.80;17.55;;;;;;;;;;6295167;28;20419;-58
2023/05/16 16:03:14;;;;;;;26.17;17.70;;;;;;;;;;6292205;28;20044;-61
2023/05/16 16:06:15;;;;;;;24.85;18.27;;;;;;;;;;6310425;28;20044;-60
2023/05/16 16:09:16;;;;;;;21.75;16.00;;;;;;;;;;6303683;28;20164;-61
2023/05/16 16:12:16;;;;;;;20.85;15.98;;;;;;;;;;6309860;28;20407;-59
2023/05/16 16:15:18;;;;;;;19.10;14.40;;;;;;;;;;6304432;28;20044;-59
2023/05/16 16:18:19;;;;;;;18.20;14.10;;;;;;;;;;6305837;28;20044;-60
2023/05/16 16:21:20;;;;;;;18.17;14.55;;;;;;;;;;6306419;28;20135;-58
2023/05/16 16:24:20;;;;;;;17.85;14.18;;;;;;;;;;6311389;28;20055;-61
2023/05/16 16:27:22;;;;;;;20.75;15.85;;;;;;;;;;6307976;28;21265;-61
2023/05/16 16:30:22;;;;;;;21.70;16.15;;;;;;;;;;6303305;28;20063;-58
2023/05/16 16:33:23;;;;;;;21.40;17.25;;;;;;;;;;6307299;28;20072;-55
2023/05/16 16:36:24;;;;;;;23.08;17.58;;;;;;;;;;6309026;28;20051;-60
2023/05/16 16:39:25;;;;;;;26.73;18.00;;;;;;;;;;6306043;28;20136;-53
2023/05/16 16:42:26;;;;;;;25.27;18.58;;;;;;;;;;6309850;28;20048;-56
2023/05/16 16:45:27;;;;;;;28.27;19.53;;;;;;;;;;6299048;28;20535;-58
2023/05/16 16:48:27;;;;;;;28.20;18.65;;;;;;;;;;6301705;28;20051;-60
2023/05/16 16:51:30;;;;;;;26.33;18.98;;;;;;;;;;6301327;28;20579;-53
2023/05/16 16:54:30;;;;;;;30.75;21.27;;;;;;;;;;6305160;28;20147;-55
2023/05/16 16:57:31;;;;;;;32.78;22.95;;;;;;;;;;6302113;28;20051;-60
2023/05/16 17:00:31;;;;;;;28.80;20.60;;;;;;;;;;6304340;28;20125;-60
2023/05/16 17:03:32;;;;;;;26.85;19.15;;;;;;;;;;6303371;28;20414;-54
2023/05/16 17:06:33;;;;;;;27.33;18.85;;;;;;;;;;6305540;28;20059;-56
2023/05/16 17:09:35;;;;;;;27.67;20.13;;;;;;;;;;6307625;28;20139;-53
2023/05/16 17:12:43;;;;;;;;;;;;;;;;;;6304424;28;20048;-55
2023/05/16 17:15:44;;;;;;;28.50;19.50;;;;;;;;;;6305276;28;19981;-60
2023/05/16 17:18:44;;;;;;;29.38;19.48;;;;;;;;;;6308678;28;20459;-56
2023/05/16 17:21:46;;;;;;;28.08;19.23;;;;;;;;;;6308847;28;20479;-58
2023/05/16 17:24:46;;;;;;;26.10;19.70;;;;;;;;;;6309440;28;20135;-56
2023/05/16 17:27:47;;;;;;;30.52;21.52;;;;;;;;;;6307019;28;20076;-59
2023/05/16 17:30:48;;;;;;;36.88;23.65;;;;;;;;;;6306248;28;20471;-53
2023/05/16 17:33:48;;;;;;;28.52;19.15;;;;;;;;;;6306471;28;20032;-55
2023/05/16 17:36:49;;;;;;;29.80;20.67;;;;;;;;;;6301800;28;20047;-63
2023/05/16 17:39:50;;;;;;;33.10;22.23;;;;;;;;;;6299961;28;20051;-59
2023/05/16 17:42:50;;;;;;;33.78;23.20;;;;;;;;;;6300450;28;20479;-56
2023/05/16 17:45:51;;;;;;;33.10;22.17;;;;;;;;;;6303274;28;20563;-54
2023/05/16 17:48:52;;;;;;;32.97;22.60;;;;;;;;;;6306683;28;20048;-60
2023/05/16 17:51:55;;;;;;;32.38;21.40;;;;;;;;;;6306691;28;20044;-59
2023/05/16 17:54:56;;;;;;;34.60;22.55;;;;;;;;;;6300120;28;20047;-60